sensor_id;sensor_type;location;lat;lon;timestamp;temperature;humidity
24678;DHT22;12800;53.094;8.778;2024-01-30T00:01:35;8.10;80.30
24678;DHT22;12800;53.094;8.778;2024-01-30T00:04:01;8.10;81.10
24678;DHT22;12800;53.094;8.778;2024-01-30T00:06:27;8.10;80.30
24678;DHT22;12800;53.094;8.778;2024-01-30T00:08:53;8.10;80.30
24678;DHT22;12800;53.094;8.778;2024-01-30T00:11:18;8.10;80.30
24678;DHT22;12800;53.094;8.778;2024-01-30T00:13:44;8.10;80.30
24678;DHT22;12800;53.094;8.778;2024-01-30T00:16:23;8.10;80.20
24678;DHT22;12800;53.094;8.778;2024-01-30T00:18:52;8.10;80.20
24678;DHT22;12800;53.094;8.778;2024-01-30T00:21:18;8.10;80.20
24678;DHT22;12800;53.094;8.778;2024-01-30T00:23:44;8.00;80.10
24678;DHT22;12800;53.094;8.778;2024-01-30T00:26:10;8.00;80.10
24678;DHT22;12800;53.094;8.778;2024-01-30T00:28:37;8.10;80.00
24678;DHT22;12800;53.094;8.778;2024-01-30T00:31:03;8.00;80.00
24678;DHT22;12800;53.094;8.778;2024-01-30T00:33:28;8.00;80.00
24678;DHT22;12800;53.094;8.778;2024-01-30T00:35:54;8.00;79.90
24678;DHT22;12800;53.094;8.778;2024-01-30T00:38:19;8.00;79.90
24678;DHT22;12800;53.094;8.778;2024-01-30T00:40:45;8.00;79.90
24678;DHT22;12800;53.094;8.778;2024-01-30T00:43:10;8.00;80.00
24678;DHT22;12800;53.094;8.778;2024-01-30T00:45:36;8.00;80.00
24678;DHT22;12800;53.094;8.778;2024-01-30T00:48:02;8.00;79.90
24678;DHT22;12800;53.094;8.778;2024-01-30T00:50:27;8.00;79.80
24678;DHT22;12800;53.094;8.778;2024-01-30T00:52:53;8.00;79.90
24678;DHT22;12800;53.094;8.778;2024-01-30T00:55:19;8.00;79.90
24678;DHT22;12800;53.094;8.778;2024-01-30T00:57:44;8.00;79.90
24678;DHT22;12800;53.094;8.778;2024-01-30T01:00:11;8.00;79.90
24678;DHT22;12800;53.094;8.778;2024-01-30T01:02:38;8.00;80.00
24678;DHT22;12800;53.094;8.778;2024-01-30T01:05:05;8.00;79.90
24678;DHT22;12800;53.094;8.778;2024-01-30T01:07:30;8.00;79.90
24678;DHT22;12800;53.094;8.778;2024-01-30T01:09:56;8.00;80.70
24678;DHT22;12800;53.094;8.778;2024-01-30T01:12:22;8.00;79.90
24678;DHT22;12800;53.094;8.778;2024-01-30T01:14:48;8.00;79.90
24678;DHT22;12800;53.094;8.778;2024-01-30T01:17:13;8.00;79.90
24678;DHT22;12800;53.094;8.778;2024-01-30T01:19:39;8.00;79.90
24678;DHT22;12800;53.094;8.778;2024-01-30T01:22:04;8.00;79.90
24678;DHT22;12800;53.094;8.778;2024-01-30T01:24:33;8.00;79.90
24678;DHT22;12800;53.094;8.778;2024-01-30T01:26:58;8.00;80.00
24678;DHT22;12800;53.094;8.778;2024-01-30T01:29:24;8.00;80.00
24678;DHT22;12800;53.094;8.778;2024-01-30T01:31:56;8.00;80.90
24678;DHT22;12800;53.094;8.778;2024-01-30T01:34:21;8.00;80.00
24678;DHT22;12800;53.094;8.778;2024-01-30T01:36:48;8.00;80.00
24678;DHT22;12800;53.094;8.778;2024-01-30T01:39:14;8.00;80.00
24678;DHT22;12800;53.094;8.778;2024-01-30T01:41:39;8.00;80.00
24678;DHT22;12800;53.094;8.778;2024-01-30T01:44:05;8.00;80.00
24678;DHT22;12800;53.094;8.778;2024-01-30T01:46:33;8.00;80.10
24678;DHT22;12800;53.094;8.778;2024-01-30T01:49:00;8.00;80.10
24678;DHT22;12800;53.094;8.778;2024-01-30T01:51:28;8.00;80.20
24678;DHT22;12800;53.094;8.778;2024-01-30T01:53:55;8.00;80.20
24678;DHT22;12800;53.094;8.778;2024-01-30T01:56:23;8.00;80.20
24678;DHT22;12800;53.094;8.778;2024-01-30T01:58:49;8.00;81.00
24678;DHT22;12800;53.094;8.778;2024-01-30T02:01:19;8.00;80.30
24678;DHT22;12800;53.094;8.778;2024-01-30T02:03:46;8.00;80.30
24678;DHT22;12800;53.094;8.778;2024-01-30T02:06:15;8.00;80.40
24678;DHT22;12800;53.094;8.778;2024-01-30T02:08:42;7.90;80.40
24678;DHT22;12800;53.094;8.778;2024-01-30T02:11:08;8.00;80.50
24678;DHT22;12800;53.094;8.778;2024-01-30T02:13:34;7.90;80.50
24678;DHT22;12800;53.094;8.778;2024-01-30T02:16:00;7.90;80.50
24678;DHT22;12800;53.094;8.778;2024-01-30T02:18:26;7.90;80.70
24678;DHT22;12800;53.094;8.778;2024-01-30T02:20:53;7.90;80.70
24678;DHT22;12800;53.094;8.778;2024-01-30T02:23:20;7.90;80.80
24678;DHT22;12800;53.094;8.778;2024-01-30T02:25:46;7.90;80.90
24678;DHT22;12800;53.094;8.778;2024-01-30T02:28:12;7.90;81.00
24678;DHT22;12800;53.094;8.778;2024-01-30T02:30:44;7.90;81.00
24678;DHT22;12800;53.094;8.778;2024-01-30T02:33:10;7.90;81.00
24678;DHT22;12800;53.094;8.778;2024-01-30T02:35:35;7.80;81.10
24678;DHT22;12800;53.094;8.778;2024-01-30T02:38:01;7.80;81.20
24678;DHT22;12800;53.094;8.778;2024-01-30T02:40:27;7.80;81.30
24678;DHT22;12800;53.094;8.778;2024-01-30T02:42:52;7.80;81.30
24678;DHT22;12800;53.094;8.778;2024-01-30T02:45:18;7.80;81.40
24678;DHT22;12800;53.094;8.778;2024-01-30T02:47:44;7.80;81.50
24678;DHT22;12800;53.094;8.778;2024-01-30T02:50:09;7.80;81.60
24678;DHT22;12800;53.094;8.778;2024-01-30T02:52:35;7.80;81.60
24678;DHT22;12800;53.094;8.778;2024-01-30T02:55:01;7.80;81.70
24678;DHT22;12800;53.094;8.778;2024-01-30T02:57:28;7.80;81.70
24678;DHT22;12800;53.094;8.778;2024-01-30T02:59:53;7.80;81.80
24678;DHT22;12800;53.094;8.778;2024-01-30T03:02:19;7.70;81.80
24678;DHT22;12800;53.094;8.778;2024-01-30T03:04:45;7.70;81.90
24678;DHT22;12800;53.094;8.778;2024-01-30T03:07:11;7.70;82.00
24678;DHT22;12800;53.094;8.778;2024-01-30T03:09:37;7.70;82.10
24678;DHT22;12800;53.094;8.778;2024-01-30T03:12:03;7.70;82.10
24678;DHT22;12800;53.094;8.778;2024-01-30T03:14:31;7.70;82.20
24678;DHT22;12800;53.094;8.778;2024-01-30T03:16:57;7.70;82.20
24678;DHT22;12800;53.094;8.778;2024-01-30T03:19:22;7.70;82.30
24678;DHT22;12800;53.094;8.778;2024-01-30T03:21:48;7.60;82.40
24678;DHT22;12800;53.094;8.778;2024-01-30T03:24:14;7.70;82.50
24678;DHT22;12800;53.094;8.778;2024-01-30T03:26:39;7.70;82.70
24678;DHT22;12800;53.094;8.778;2024-01-30T03:29:05;7.70;82.70
24678;DHT22;12800;53.094;8.778;2024-01-30T03:31:30;7.70;82.80
24678;DHT22;12800;53.094;8.778;2024-01-30T03:33:56;7.70;82.80
24678;DHT22;12800;53.094;8.778;2024-01-30T03:36:21;7.70;83.00
24678;DHT22;12800;53.094;8.778;2024-01-30T03:38:47;7.70;83.80
24678;DHT22;12800;53.094;8.778;2024-01-30T03:41:13;7.70;83.00
24678;DHT22;12800;53.094;8.778;2024-01-30T03:43:38;7.70;83.00
24678;DHT22;12800;53.094;8.778;2024-01-30T03:46:04;7.70;83.00
24678;DHT22;12800;53.094;8.778;2024-01-30T03:48:30;7.70;83.00
24678;DHT22;12800;53.094;8.778;2024-01-30T03:50:55;7.70;83.10
24678;DHT22;12800;53.094;8.778;2024-01-30T03:53:21;7.70;83.20
24678;DHT22;12800;53.094;8.778;2024-01-30T03:55:47;7.70;83.20
24678;DHT22;12800;53.094;8.778;2024-01-30T03:58:12;7.70;83.20
24678;DHT22;12800;53.094;8.778;2024-01-30T04:00:38;7.60;83.30
24678;DHT22;12800;53.094;8.778;2024-01-30T04:03:04;7.70;83.30
24678;DHT22;12800;53.094;8.778;2024-01-30T04:05:29;7.70;83.40
24678;DHT22;12800;53.094;8.778;2024-01-30T04:07:55;7.70;83.50
24678;DHT22;12800;53.094;8.778;2024-01-30T04:10:21;7.70;83.60
24678;DHT22;12800;53.094;8.778;2024-01-30T04:12:46;7.70;83.60
24678;DHT22;12800;53.094;8.778;2024-01-30T04:15:12;7.70;83.70
24678;DHT22;12800;53.094;8.778;2024-01-30T04:17:39;7.70;83.70
24678;DHT22;12800;53.094;8.778;2024-01-30T04:20:05;7.70;83.80
24678;DHT22;12800;53.094;8.778;2024-01-30T04:22:31;7.70;83.70
24678;DHT22;12800;53.094;8.778;2024-01-30T04:24:57;7.80;83.80
24678;DHT22;12800;53.094;8.778;2024-01-30T04:27:22;7.80;83.80
24678;DHT22;12800;53.094;8.778;2024-01-30T04:29:48;7.80;83.90
24678;DHT22;12800;53.094;8.778;2024-01-30T04:32:14;7.80;83.90
24678;DHT22;12800;53.094;8.778;2024-01-30T04:34:39;7.80;83.90
24678;DHT22;12800;53.094;8.778;2024-01-30T04:37:05;7.80;83.80
24678;DHT22;12800;53.094;8.778;2024-01-30T04:39:32;7.80;83.80
24678;DHT22;12800;53.094;8.778;2024-01-30T04:41:58;7.80;83.90
24678;DHT22;12800;53.094;8.778;2024-01-30T04:44:24;7.80;83.90
24678;DHT22;12800;53.094;8.778;2024-01-30T04:46:50;7.80;84.00
24678;DHT22;12800;53.094;8.778;2024-01-30T04:49:15;7.80;84.00
24678;DHT22;12800;53.094;8.778;2024-01-30T04:51:41;7.80;84.00
24678;DHT22;12800;53.094;8.778;2024-01-30T04:54:07;7.80;84.00
24678;DHT22;12800;53.094;8.778;2024-01-30T04:56:32;7.80;84.00
24678;DHT22;12800;53.094;8.778;2024-01-30T04:58:58;7.80;84.10
24678;DHT22;12800;53.094;8.778;2024-01-30T05:01:23;7.80;84.10
24678;DHT22;12800;53.094;8.778;2024-01-30T05:03:49;7.80;84.20
24678;DHT22;12800;53.094;8.778;2024-01-30T05:06:27;7.80;84.10
24678;DHT22;12800;53.094;8.778;2024-01-30T05:08:53;7.80;84.10
24678;DHT22;12800;53.094;8.778;2024-01-30T05:11:18;7.90;84.20
24678;DHT22;12800;53.094;8.778;2024-01-30T05:13:44;7.80;84.20
24678;DHT22;12800;53.094;8.778;2024-01-30T05:16:10;7.80;84.20
24678;DHT22;12800;53.094;8.778;2024-01-30T05:18:35;7.90;84.20
24678;DHT22;12800;53.094;8.778;2024-01-30T05:21:02;7.90;84.30
24678;DHT22;12800;53.094;8.778;2024-01-30T05:23:28;7.80;84.20
24678;DHT22;12800;53.094;8.778;2024-01-30T05:25:53;7.80;84.20
24678;DHT22;12800;53.094;8.778;2024-01-30T05:28:19;7.80;84.30
24678;DHT22;12800;53.094;8.778;2024-01-30T05:30:44;7.80;84.30
24678;DHT22;12800;53.094;8.778;2024-01-30T05:33:10;7.80;84.40
24678;DHT22;12800;53.094;8.778;2024-01-30T05:35:37;7.80;84.40
24678;DHT22;12800;53.094;8.778;2024-01-30T05:38:03;7.80;84.40
24678;DHT22;12800;53.094;8.778;2024-01-30T05:40:30;7.80;84.40
24678;DHT22;12800;53.094;8.778;2024-01-30T05:42:56;7.80;84.50
24678;DHT22;12800;53.094;8.778;2024-01-30T05:45:21;7.80;84.60
24678;DHT22;12800;53.094;8.778;2024-01-30T05:47:48;7.80;84.60
24678;DHT22;12800;53.094;8.778;2024-01-30T05:50:14;7.80;84.60
24678;DHT22;12800;53.094;8.778;2024-01-30T05:52:40;7.80;84.70
24678;DHT22;12800;53.094;8.778;2024-01-30T05:55:06;7.80;84.70
24678;DHT22;12800;53.094;8.778;2024-01-30T05:57:32;7.80;84.70
24678;DHT22;12800;53.094;8.778;2024-01-30T05:59:57;7.80;84.70
24678;DHT22;12800;53.094;8.778;2024-01-30T06:02:23;7.80;84.70
24678;DHT22;12800;53.094;8.778;2024-01-30T06:04:49;7.80;84.80
24678;DHT22;12800;53.094;8.778;2024-01-30T06:07:14;7.80;84.80
24678;DHT22;12800;53.094;8.778;2024-01-30T06:09:40;7.80;84.90
24678;DHT22;12800;53.094;8.778;2024-01-30T06:12:06;7.90;84.90
24678;DHT22;12800;53.094;8.778;2024-01-30T06:14:32;7.80;84.80
24678;DHT22;12800;53.094;8.778;2024-01-30T06:16:59;7.80;84.90
24678;DHT22;12800;53.094;8.778;2024-01-30T06:19:24;7.80;84.90
24678;DHT22;12800;53.094;8.778;2024-01-30T06:21:50;7.90;85.00
24678;DHT22;12800;53.094;8.778;2024-01-30T06:24:16;7.90;84.90
24678;DHT22;12800;53.094;8.778;2024-01-30T06:26:42;7.90;84.90
24678;DHT22;12800;53.094;8.778;2024-01-30T06:29:08;7.90;85.00
24678;DHT22;12800;53.094;8.778;2024-01-30T06:31:40;7.90;84.90
24678;DHT22;12800;53.094;8.778;2024-01-30T06:34:05;7.90;85.00
24678;DHT22;12800;53.094;8.778;2024-01-30T06:36:31;7.90;85.70
24678;DHT22;12800;53.094;8.778;2024-01-30T06:38:56;7.90;84.90
24678;DHT22;12800;53.094;8.778;2024-01-30T06:41:22;7.90;85.00
24678;DHT22;12800;53.094;8.778;2024-01-30T06:43:48;7.90;85.00
24678;DHT22;12800;53.094;8.778;2024-01-30T06:46:13;7.90;85.00
24678;DHT22;12800;53.094;8.778;2024-01-30T06:48:39;7.90;84.90
24678;DHT22;12800;53.094;8.778;2024-01-30T06:51:06;7.90;84.90
24678;DHT22;12800;53.094;8.778;2024-01-30T06:53:31;7.90;84.90
24678;DHT22;12800;53.094;8.778;2024-01-30T06:55:57;7.90;84.90
24678;DHT22;12800;53.094;8.778;2024-01-30T06:58:23;7.90;84.90
24678;DHT22;12800;53.094;8.778;2024-01-30T07:00:48;7.90;84.90
24678;DHT22;12800;53.094;8.778;2024-01-30T07:03:14;7.90;84.90
24678;DHT22;12800;53.094;8.778;2024-01-30T07:05:39;8.00;85.00
24678;DHT22;12800;53.094;8.778;2024-01-30T07:08:05;7.90;84.80
24678;DHT22;12800;53.094;8.778;2024-01-30T07:10:31;7.90;84.90
24678;DHT22;12800;53.094;8.778;2024-01-30T07:12:57;7.90;84.80
24678;DHT22;12800;53.094;8.778;2024-01-30T07:15:22;7.90;84.90
24678;DHT22;12800;53.094;8.778;2024-01-30T07:17:48;7.90;84.90
24678;DHT22;12800;53.094;8.778;2024-01-30T07:20:14;7.90;84.90
24678;DHT22;12800;53.094;8.778;2024-01-30T07:22:40;7.90;85.10
24678;DHT22;12800;53.094;8.778;2024-01-30T07:25:06;8.00;85.10
24678;DHT22;12800;53.094;8.778;2024-01-30T07:27:32;8.00;85.10
24678;DHT22;12800;53.094;8.778;2024-01-30T07:29:58;8.00;85.00
24678;DHT22;12800;53.094;8.778;2024-01-30T07:32:23;8.00;85.00
24678;DHT22;12800;53.094;8.778;2024-01-30T07:34:49;8.00;85.10
24678;DHT22;12800;53.094;8.778;2024-01-30T07:37:15;8.00;85.00
24678;DHT22;12800;53.094;8.778;2024-01-30T07:39:41;8.00;85.10
24678;DHT22;12800;53.094;8.778;2024-01-30T07:42:08;8.00;85.10
24678;DHT22;12800;53.094;8.778;2024-01-30T07:44:34;8.00;85.10
24678;DHT22;12800;53.094;8.778;2024-01-30T07:46:59;8.00;85.00
24678;DHT22;12800;53.094;8.778;2024-01-30T07:49:25;8.00;85.00
24678;DHT22;12800;53.094;8.778;2024-01-30T07:51:51;8.10;85.10
24678;DHT22;12800;53.094;8.778;2024-01-30T07:54:16;8.10;85.10
24678;DHT22;12800;53.094;8.778;2024-01-30T08:03:27;8.10;85.20
24678;DHT22;12800;53.094;8.778;2024-01-30T08:05:53;8.20;85.30
24678;DHT22;12800;53.094;8.778;2024-01-30T08:08:18;8.20;85.20
24678;DHT22;12800;53.094;8.778;2024-01-30T08:10:44;8.30;85.20
24678;DHT22;12800;53.094;8.778;2024-01-30T08:13:10;8.30;85.20
24678;DHT22;12800;53.094;8.778;2024-01-30T08:15:35;8.30;85.10
24678;DHT22;12800;53.094;8.778;2024-01-30T08:18:01;8.30;85.00
24678;DHT22;12800;53.094;8.778;2024-01-30T08:20:27;8.40;85.00
24678;DHT22;12800;53.094;8.778;2024-01-30T08:22:52;8.40;85.00
24678;DHT22;12800;53.094;8.778;2024-01-30T08:25:18;8.50;85.00
24678;DHT22;12800;53.094;8.778;2024-01-30T08:27:44;8.50;85.00
24678;DHT22;12800;53.094;8.778;2024-01-30T08:30:10;8.60;85.00
24678;DHT22;12800;53.094;8.778;2024-01-30T08:32:36;8.60;84.80
24678;DHT22;12800;53.094;8.778;2024-01-30T08:35:01;8.60;84.60
24678;DHT22;12800;53.094;8.778;2024-01-30T08:37:30;8.60;84.50
24678;DHT22;12800;53.094;8.778;2024-01-30T08:39:56;8.60;84.50
24678;DHT22;12800;53.094;8.778;2024-01-30T08:42:22;8.70;84.60
24678;DHT22;12800;53.094;8.778;2024-01-30T08:44:48;8.70;84.60
24678;DHT22;12800;53.094;8.778;2024-01-30T08:47:15;8.70;84.50
24678;DHT22;12800;53.094;8.778;2024-01-30T08:49:42;8.80;84.60
24678;DHT22;12800;53.094;8.778;2024-01-30T08:52:12;8.80;84.50
24678;DHT22;12800;53.094;8.778;2024-01-30T08:54:38;8.90;84.50
24678;DHT22;12800;53.094;8.778;2024-01-30T08:57:03;8.90;84.40
24678;DHT22;12800;53.094;8.778;2024-01-30T08:59:29;8.90;84.40
24678;DHT22;12800;53.094;8.778;2024-01-30T09:01:55;9.00;84.40
24678;DHT22;12800;53.094;8.778;2024-01-30T09:04:23;9.00;84.20
24678;DHT22;12800;53.094;8.778;2024-01-30T09:06:49;9.10;85.10
24678;DHT22;12800;53.094;8.778;2024-01-30T09:09:14;9.10;84.20
24678;DHT22;12800;53.094;8.778;2024-01-30T09:11:40;9.10;84.20
24678;DHT22;12800;53.094;8.778;2024-01-30T09:14:06;9.20;84.20
24678;DHT22;12800;53.094;8.778;2024-01-30T09:16:32;9.20;84.10
24678;DHT22;12800;53.094;8.778;2024-01-30T09:18:57;9.20;84.10
24678;DHT22;12800;53.094;8.778;2024-01-30T09:21:23;9.30;84.10
24678;DHT22;12800;53.094;8.778;2024-01-30T09:23:49;9.30;84.00
24678;DHT22;12800;53.094;8.778;2024-01-30T09:26:14;9.30;83.90
24678;DHT22;12800;53.094;8.778;2024-01-30T09:28:40;9.40;83.90
24678;DHT22;12800;53.094;8.778;2024-01-30T09:31:11;9.40;83.90
24678;DHT22;12800;53.094;8.778;2024-01-30T09:33:37;9.40;84.60
24678;DHT22;12800;53.094;8.778;2024-01-30T09:36:02;9.50;84.70
24678;DHT22;12800;53.094;8.778;2024-01-30T09:38:28;9.50;83.80
24678;DHT22;12800;53.094;8.778;2024-01-30T09:40:54;9.60;83.80
24678;DHT22;12800;53.094;8.778;2024-01-30T09:43:23;9.60;83.80
24678;DHT22;12800;53.094;8.778;2024-01-30T09:45:50;9.60;84.50
24678;DHT22;12800;53.094;8.778;2024-01-30T09:48:16;9.70;83.70
24678;DHT22;12800;53.094;8.778;2024-01-30T09:50:41;9.70;83.70
24678;DHT22;12800;53.094;8.778;2024-01-30T09:53:11;9.80;83.70
24678;DHT22;12800;53.094;8.778;2024-01-30T09:55:40;9.80;83.60
24678;DHT22;12800;53.094;8.778;2024-01-30T09:58:08;9.90;83.70
24678;DHT22;12800;53.094;8.778;2024-01-30T10:00:33;9.90;83.60
24678;DHT22;12800;53.094;8.778;2024-01-30T10:02:59;10.00;83.70
24678;DHT22;12800;53.094;8.778;2024-01-30T10:05:27;10.00;83.60
24678;DHT22;12800;53.094;8.778;2024-01-30T10:07:56;10.10;83.50
24678;DHT22;12800;53.094;8.778;2024-01-30T10:10:23;10.10;83.60
24678;DHT22;12800;53.094;8.778;2024-01-30T10:12:51;10.10;83.60
24678;DHT22;12800;53.094;8.778;2024-01-30T10:15:18;10.10;83.60
24678;DHT22;12800;53.094;8.778;2024-01-30T10:17:47;10.10;83.60
24678;DHT22;12800;53.094;8.778;2024-01-30T10:20:13;10.10;83.70
24678;DHT22;12800;53.094;8.778;2024-01-30T10:22:40;10.10;83.70
24678;DHT22;12800;53.094;8.778;2024-01-30T10:25:09;10.20;83.70
24678;DHT22;12800;53.094;8.778;2024-01-30T10:27:35;10.20;83.80
24678;DHT22;12800;53.094;8.778;2024-01-30T10:30:01;10.20;83.80
24678;DHT22;12800;53.094;8.778;2024-01-30T10:32:27;10.30;83.80
24678;DHT22;12800;53.094;8.778;2024-01-30T10:34:52;10.30;83.70
24678;DHT22;12800;53.094;8.778;2024-01-30T10:37:19;10.30;83.70
24678;DHT22;12800;53.094;8.778;2024-01-30T10:39:46;10.40;83.70
24678;DHT22;12800;53.094;8.778;2024-01-30T10:42:14;10.40;83.60
24678;DHT22;12800;53.094;8.778;2024-01-30T10:44:55;10.50;83.70
24678;DHT22;12800;53.094;8.778;2024-01-30T10:47:26;10.50;83.60
24678;DHT22;12800;53.094;8.778;2024-01-30T10:49:54;10.60;83.50
24678;DHT22;12800;53.094;8.778;2024-01-30T10:52:20;10.70;83.40
24678;DHT22;12800;53.094;8.778;2024-01-30T10:54:46;10.70;83.40
24678;DHT22;12800;53.094;8.778;2024-01-30T10:57:13;10.80;83.30
24678;DHT22;12800;53.094;8.778;2024-01-30T10:59:41;10.90;83.10
24678;DHT22;12800;53.094;8.778;2024-01-30T11:02:07;10.90;83.00
24678;DHT22;12800;53.094;8.778;2024-01-30T11:04:37;11.00;82.90
24678;DHT22;12800;53.094;8.778;2024-01-30T11:07:14;11.00;82.80
24678;DHT22;12800;53.094;8.778;2024-01-30T11:09:40;11.10;82.70
24678;DHT22;12800;53.094;8.778;2024-01-30T11:12:12;11.10;82.70
24678;DHT22;12800;53.094;8.778;2024-01-30T11:14:38;11.10;82.60
24678;DHT22;12800;53.094;8.778;2024-01-30T11:17:07;11.20;82.60
24678;DHT22;12800;53.094;8.778;2024-01-30T11:19:35;11.20;82.60
24678;DHT22;12800;53.094;8.778;2024-01-30T11:22:00;11.20;82.60
24678;DHT22;12800;53.094;8.778;2024-01-30T11:24:28;11.30;82.60
24678;DHT22;12800;53.094;8.778;2024-01-30T11:26:57;11.30;82.50
24678;DHT22;12800;53.094;8.778;2024-01-30T11:29:27;11.40;82.50
24678;DHT22;12800;53.094;8.778;2024-01-30T11:31:59;11.40;82.30
24678;DHT22;12800;53.094;8.778;2024-01-30T11:34:25;11.50;82.50
24678;DHT22;12800;53.094;8.778;2024-01-30T11:36:59;11.50;82.40
24678;DHT22;12800;53.094;8.778;2024-01-30T11:39:30;11.60;82.50
24678;DHT22;12800;53.094;8.778;2024-01-30T11:41:56;11.60;82.50
24678;DHT22;12800;53.094;8.778;2024-01-30T11:44:23;11.70;82.40
24678;DHT22;12800;53.094;8.778;2024-01-30T11:46:49;11.70;82.20
24678;DHT22;12800;53.094;8.778;2024-01-30T11:49:15;11.70;82.20
24678;DHT22;12800;53.094;8.778;2024-01-30T11:51:41;11.70;82.90
24678;DHT22;12800;53.094;8.778;2024-01-30T11:54:07;11.70;82.00
24678;DHT22;12800;53.094;8.778;2024-01-30T11:56:33;11.70;82.00
24678;DHT22;12800;53.094;8.778;2024-01-30T11:58:58;11.70;82.10
24678;DHT22;12800;53.094;8.778;2024-01-30T12:01:26;11.70;82.20
24678;DHT22;12800;53.094;8.778;2024-01-30T12:03:52;11.70;82.10
24678;DHT22;12800;53.094;8.778;2024-01-30T12:06:18;11.70;82.10
24678;DHT22;12800;53.094;8.778;2024-01-30T12:08:58;11.70;82.00
24678;DHT22;12800;53.094;8.778;2024-01-30T12:11:25;11.70;82.10
24678;DHT22;12800;53.094;8.778;2024-01-30T12:13:52;11.70;82.10
24678;DHT22;12800;53.094;8.778;2024-01-30T12:16:18;11.70;82.10
24678;DHT22;12800;53.094;8.778;2024-01-30T12:18:44;11.80;82.20
24678;DHT22;12800;53.094;8.778;2024-01-30T12:21:09;11.80;82.10
24678;DHT22;12800;53.094;8.778;2024-01-30T12:23:35;11.80;82.00
24678;DHT22;12800;53.094;8.778;2024-01-30T12:26:01;11.80;81.90
24678;DHT22;12800;53.094;8.778;2024-01-30T12:28:29;11.80;82.00
24678;DHT22;12800;53.094;8.778;2024-01-30T12:31:04;11.80;82.10
24678;DHT22;12800;53.094;8.778;2024-01-30T12:33:30;11.90;82.10
24678;DHT22;12800;53.094;8.778;2024-01-30T12:35:57;11.80;82.10
24678;DHT22;12800;53.094;8.778;2024-01-30T12:38:24;11.90;82.10
24678;DHT22;12800;53.094;8.778;2024-01-30T12:40:54;11.90;82.10
24678;DHT22;12800;53.094;8.778;2024-01-30T12:43:19;11.90;82.10
24678;DHT22;12800;53.094;8.778;2024-01-30T12:45:47;11.90;82.10
24678;DHT22;12800;53.094;8.778;2024-01-30T12:48:12;11.90;82.00
24678;DHT22;12800;53.094;8.778;2024-01-30T12:50:38;11.90;82.10
24678;DHT22;12800;53.094;8.778;2024-01-30T12:53:03;12.00;82.10
24678;DHT22;12800;53.094;8.778;2024-01-30T12:55:30;12.00;82.10
24678;DHT22;12800;53.094;8.778;2024-01-30T12:57:56;12.00;82.10
24678;DHT22;12800;53.094;8.778;2024-01-30T13:00:22;12.00;82.20
24678;DHT22;12800;53.094;8.778;2024-01-30T13:02:48;12.00;82.20
24678;DHT22;12800;53.094;8.778;2024-01-30T13:05:14;12.00;82.30
24678;DHT22;12800;53.094;8.778;2024-01-30T13:07:39;12.00;82.40
24678;DHT22;12800;53.094;8.778;2024-01-30T13:10:05;12.00;82.40
24678;DHT22;12800;53.094;8.778;2024-01-30T13:12:32;12.00;82.40
24678;DHT22;12800;53.094;8.778;2024-01-30T13:14:58;12.10;82.50
24678;DHT22;12800;53.094;8.778;2024-01-30T13:17:26;12.00;82.40
24678;DHT22;12800;53.094;8.778;2024-01-30T13:19:52;12.00;82.40
24678;DHT22;12800;53.094;8.778;2024-01-30T13:22:19;12.00;82.40
24678;DHT22;12800;53.094;8.778;2024-01-30T13:24:47;12.00;82.60
24678;DHT22;12800;53.094;8.778;2024-01-30T13:27:12;12.00;82.60
24678;DHT22;12800;53.094;8.778;2024-01-30T13:29:38;12.10;82.60
24678;DHT22;12800;53.094;8.778;2024-01-30T13:32:04;12.00;82.70
24678;DHT22;12800;53.094;8.778;2024-01-30T13:34:30;12.00;82.80
24678;DHT22;12800;53.094;8.778;2024-01-30T13:36:55;12.00;82.90
24678;DHT22;12800;53.094;8.778;2024-01-30T13:39:22;12.00;83.00
24678;DHT22;12800;53.094;8.778;2024-01-30T13:41:48;12.00;83.20
24678;DHT22;12800;53.094;8.778;2024-01-30T13:44:14;12.00;83.30
24678;DHT22;12800;53.094;8.778;2024-01-30T13:46:41;12.00;83.40
24678;DHT22;12800;53.094;8.778;2024-01-30T13:49:07;12.00;83.60
24678;DHT22;12800;53.094;8.778;2024-01-30T13:51:33;12.00;83.70
24678;DHT22;12800;53.094;8.778;2024-01-30T13:53:58;12.00;83.80
24678;DHT22;12800;53.094;8.778;2024-01-30T13:56:24;12.00;83.80
24678;DHT22;12800;53.094;8.778;2024-01-30T13:58:52;12.00;84.00
24678;DHT22;12800;53.094;8.778;2024-01-30T14:01:18;12.00;84.00
24678;DHT22;12800;53.094;8.778;2024-01-30T14:03:44;12.00;84.10
24678;DHT22;12800;53.094;8.778;2024-01-30T14:06:10;12.00;84.20
24678;DHT22;12800;53.094;8.778;2024-01-30T14:08:36;12.00;84.30
24678;DHT22;12800;53.094;8.778;2024-01-30T14:11:02;12.10;84.40
24678;DHT22;12800;53.094;8.778;2024-01-30T14:13:27;12.10;84.40
24678;DHT22;12800;53.094;8.778;2024-01-30T14:15:53;12.10;84.30
24678;DHT22;12800;53.094;8.778;2024-01-30T14:18:19;12.10;84.30
24678;DHT22;12800;53.094;8.778;2024-01-30T14:20:45;12.00;84.30
24678;DHT22;12800;53.094;8.778;2024-01-30T14:23:10;12.10;84.40
24678;DHT22;12800;53.094;8.778;2024-01-30T14:25:36;12.10;84.40
24678;DHT22;12800;53.094;8.778;2024-01-30T14:28:02;12.00;84.40
24678;DHT22;12800;53.094;8.778;2024-01-30T14:30:27;12.10;84.50
24678;DHT22;12800;53.094;8.778;2024-01-30T14:32:53;12.10;84.60
24678;DHT22;12800;53.094;8.778;2024-01-30T14:35:19;12.20;84.80
24678;DHT22;12800;53.094;8.778;2024-01-30T14:37:45;12.20;84.60
24678;DHT22;12800;53.094;8.778;2024-01-30T14:40:11;12.30;84.50
24678;DHT22;12800;53.094;8.778;2024-01-30T14:42:36;12.30;84.40
24678;DHT22;12800;53.094;8.778;2024-01-30T14:45:03;12.30;84.20
24678;DHT22;12800;53.094;8.778;2024-01-30T14:47:29;12.40;84.10
24678;DHT22;12800;53.094;8.778;2024-01-30T14:49:56;12.40;84.00
24678;DHT22;12800;53.094;8.778;2024-01-30T14:52:22;12.40;83.90
24678;DHT22;12800;53.094;8.778;2024-01-30T14:54:47;12.30;83.80
24678;DHT22;12800;53.094;8.778;2024-01-30T14:57:13;12.30;83.70
24678;DHT22;12800;53.094;8.778;2024-01-30T14:59:39;12.30;83.70
24678;DHT22;12800;53.094;8.778;2024-01-30T15:02:06;12.20;83.60
24678;DHT22;12800;53.094;8.778;2024-01-30T15:04:31;12.20;83.70
24678;DHT22;12800;53.094;8.778;2024-01-30T15:06:57;12.20;83.80
24678;DHT22;12800;53.094;8.778;2024-01-30T15:09:23;12.10;83.80
24678;DHT22;12800;53.094;8.778;2024-01-30T15:11:51;12.10;83.80
24678;DHT22;12800;53.094;8.778;2024-01-30T15:14:17;12.10;83.80
24678;DHT22;12800;53.094;8.778;2024-01-30T15:16:43;12.10;83.80
24678;DHT22;12800;53.094;8.778;2024-01-30T15:19:08;12.10;83.80
24678;DHT22;12800;53.094;8.778;2024-01-30T15:21:34;12.00;83.70
24678;DHT22;12800;53.094;8.778;2024-01-30T15:24:00;12.10;83.70
24678;DHT22;12800;53.094;8.778;2024-01-30T15:26:26;12.10;83.60
24678;DHT22;12800;53.094;8.778;2024-01-30T15:28:51;12.10;83.60
24678;DHT22;12800;53.094;8.778;2024-01-30T15:31:17;12.00;83.50
24678;DHT22;12800;53.094;8.778;2024-01-30T15:33:43;12.00;83.40
24678;DHT22;12800;53.094;8.778;2024-01-30T15:36:09;12.00;83.30
24678;DHT22;12800;53.094;8.778;2024-01-30T15:38:36;12.00;83.10
24678;DHT22;12800;53.094;8.778;2024-01-30T15:41:01;12.00;83.10